createdAt,value
2022-10-02T00:00:36.292Z,100.00
2022-10-02T00:01:53.817Z,100.00
2022-10-02T00:03:17.637Z,100.00
2022-10-02T00:04:44.428Z,100.00
2022-10-02T00:05:51.892Z,100.00
2022-10-02T00:06:57.786Z,100.00
2022-10-02T00:08:05.426Z,100.00
2022-10-02T00:09:10.259Z,100.00
2022-10-02T00:10:32.122Z,100.00
2022-10-02T00:11:44.625Z,100.00
2022-10-02T00:12:50.210Z,100.00
2022-10-02T00:14:02.622Z,100.00
2022-10-02T00:15:15.986Z,100.00
2022-10-02T00:16:24.520Z,100.00
2022-10-02T00:17:42.528Z,100.00
2022-10-02T00:18:45.715Z,100.00
2022-10-02T00:19:47.500Z,100.00
2022-10-02T00:20:57.944Z,100.00
2022-10-02T00:22:09.971Z,99.47
2022-10-02T00:23:19.920Z,99.92
2022-10-02T00:24:32.141Z,99.74
2022-10-02T00:26:17.379Z,98.93
2022-10-02T00:27:22.076Z,99.00
2022-10-02T00:28:26.877Z,98.69
2022-10-02T00:29:51.767Z,98.74
2022-10-02T00:30:56.478Z,99.19
2022-10-02T00:32:16.820Z,99.67
2022-10-02T00:33:31.112Z,99.26
2022-10-02T00:34:41.918Z,98.61
2022-10-02T00:36:02.447Z,97.83
2022-10-02T00:37:12.028Z,99.50
2022-10-02T00:38:49.247Z,98.28
2022-10-02T00:39:57.796Z,98.26
2022-10-02T00:41:02.165Z,99.23
2022-10-02T00:42:49.224Z,99.84
2022-10-02T00:44:09.019Z,98.71
2022-10-02T00:45:35.436Z,97.58
2022-10-02T00:46:54.910Z,96.58
2022-10-02T00:48:37.016Z,96.56
2022-10-02T00:49:53.759Z,96.98
2022-10-02T00:51:33.099Z,97.51
2022-10-02T00:52:53.284Z,98.03
2022-10-02T00:54:23.427Z,98.31
2022-10-02T00:55:33.931Z,97.25
2022-10-02T00:57:04.587Z,97.24
2022-10-02T00:58:40.046Z,97.18
2022-10-02T01:00:11.884Z,97.56
2022-10-02T01:01:19.700Z,97.31
2022-10-02T01:02:24.295Z,96.29
2022-10-02T01:03:53.439Z,95.85
2022-10-02T01:04:55.111Z,95.57
2022-10-02T01:05:57.023Z,95.34
2022-10-02T01:06:58.836Z,95.79
2022-10-02T01:08:01.500Z,95.01
2022-10-02T01:09:03.388Z,95.70
2022-10-02T01:10:05.490Z,95.33
2022-10-02T01:11:08.063Z,95.89
2022-10-02T01:12:10.299Z,96.87
2022-10-02T01:13:12.596Z,96.23
2022-10-02T01:14:15.250Z,96.17
2022-10-02T01:15:19.561Z,96.39
2022-10-02T01:16:21.234Z,96.60
2022-10-02T01:17:33.217Z,97.43
2022-10-02T01:18:35.004Z,96.59
2022-10-02T01:19:41.482Z,97.43
2022-10-02T01:20:48.998Z,97.91
2022-10-02T01:21:57.327Z,97.58
2022-10-02T01:23:01.746Z,96.93
2022-10-02T01:24:13.021Z,97.36
2022-10-02T01:25:15.228Z,97.72
2022-10-02T01:26:17.513Z,98.22
2022-10-02T01:27:19.428Z,97.63
2022-10-02T01:28:22.423Z,97.89
2022-10-02T01:29:24.198Z,97.69
2022-10-02T01:30:26.025Z,97.30
2022-10-02T01:31:28.274Z,97.18
2022-10-02T01:32:30.185Z,97.43
2022-10-02T01:33:32.485Z,97.62
2022-10-02T01:34:34.335Z,97.04
2022-10-02T01:35:39.014Z,96.50
2022-10-02T01:36:40.766Z,96.62
2022-10-02T01:37:45.044Z,95.78
2022-10-02T01:38:49.271Z,95.66
2022-10-02T01:39:52.041Z,95.85
2022-10-02T01:40:55.035Z,96.59
2022-10-02T01:41:56.792Z,96.16
2022-10-02T01:43:02.409Z,95.87
2022-10-02T01:44:04.092Z,95.58
2022-10-02T01:45:08.268Z,95.32
2022-10-02T01:46:30.115Z,95.53
2022-10-02T01:47:56.368Z,94.26
2022-10-02T01:48:57.962Z,95.06
2022-10-02T01:50:14.978Z,95.04
2022-10-02T01:51:24.357Z,95.52
2022-10-02T01:52:57.087Z,95.19
2022-10-02T01:54:26.919Z,95.30
2022-10-02T01:55:44.663Z,94.84
2022-10-02T01:57:18.472Z,95.27
2022-10-02T01:58:53.949Z,96.11
2022-10-02T02:00:15.785Z,96.37
2022-10-02T02:01:28.000Z,95.78
2022-10-02T02:02:33.877Z,95.27
2022-10-02T02:03:55.003Z,95.67
2022-10-02T02:05:08.726Z,95.73
2022-10-02T02:06:48.024Z,96.17
2022-10-02T02:07:55.272Z,95.98
2022-10-02T02:09:18.845Z,96.56
2022-10-02T02:10:35.602Z,97.15
2022-10-02T02:11:44.528Z,97.12
2022-10-02T02:12:58.906Z,96.94
2022-10-02T02:14:19.998Z,97.52
2022-10-02T02:15:36.869Z,97.23
2022-10-02T02:16:44.254Z,97.27
2022-10-02T02:17:52.341Z,97.45
2022-10-02T02:19:20.076Z,97.79
2022-10-02T02:20:42.074Z,98.01
2022-10-02T02:22:01.388Z,97.74
2022-10-02T02:23:11.094Z,97.85
2022-10-02T02:24:24.666Z,98.13
2022-10-02T02:25:30.178Z,98.15
2022-10-02T02:26:33.384Z,98.37
2022-10-02T02:27:41.302Z,98.50
2022-10-02T02:28:51.098Z,98.51
2022-10-02T02:29:57.107Z,98.62
2022-10-02T02:31:01.449Z,98.38
2022-10-02T02:32:08.560Z,98.01
2022-10-02T02:33:46.268Z,97.57
2022-10-02T02:34:53.669Z,97.17
2022-10-02T02:36:01.093Z,97.91
2022-10-02T02:37:08.368Z,98.08
2022-10-02T02:38:15.605Z,98.20
2022-10-02T02:39:23.405Z,98.70
2022-10-02T02:40:30.455Z,98.23
2022-10-02T02:41:38.875Z,96.94
2022-10-02T02:42:53.679Z,97.10
2022-10-02T02:44:11.258Z,96.93
2022-10-02T02:45:19.892Z,97.10
2022-10-02T02:47:03.096Z,97.09
2022-10-02T02:48:16.769Z,96.83
2022-10-02T02:49:18.664Z,95.71
2022-10-02T02:50:41.448Z,96.01
2022-10-02T02:51:44.788Z,94.77
2022-10-02T02:53:01.742Z,94.84
2022-10-02T02:54:21.560Z,95.14
2022-10-02T02:55:29.044Z,94.30
2022-10-02T02:56:33.326Z,93.02
2022-10-02T02:57:42.384Z,93.05
2022-10-02T02:58:49.336Z,93.18
2022-10-02T02:59:53.833Z,93.90
2022-10-02T03:00:56.161Z,95.06
2022-10-02T03:01:58.877Z,94.18
2022-10-02T03:03:00.661Z,94.43
2022-10-02T03:04:02.530Z,94.13
2022-10-02T03:05:14.578Z,93.30
2022-10-02T03:06:16.366Z,93.10
2022-10-02T03:07:18.338Z,93.49
2022-10-02T03:08:28.052Z,93.19
2022-10-02T03:09:32.512Z,93.10
2022-10-02T03:10:51.046Z,93.41
2022-10-02T03:12:07.984Z,93.73
2022-10-02T03:13:31.290Z,94.29
2022-10-02T03:14:43.921Z,94.69
2022-10-02T03:15:55.483Z,94.23
2022-10-02T03:17:07.892Z,94.42
2022-10-02T03:18:34.711Z,95.85
2022-10-02T03:19:51.257Z,95.94
2022-10-02T03:21:05.430Z,92.90
2022-10-02T03:22:10.002Z,92.52
2022-10-02T03:23:19.779Z,91.60
2022-10-02T03:24:28.636Z,92.74
2022-10-02T03:25:43.064Z,93.58
2022-10-02T03:26:52.991Z,94.57
2022-10-02T03:28:56.045Z,93.72
2022-10-02T03:30:09.804Z,93.81
2022-10-02T03:31:12.592Z,91.83
2022-10-02T03:32:16.838Z,91.42
2022-10-02T03:33:19.678Z,91.65
2022-10-02T03:34:23.589Z,92.33
2022-10-02T03:35:25.631Z,91.76
2022-10-02T03:36:27.772Z,91.11
2022-10-02T03:37:29.768Z,91.96
2022-10-02T03:38:33.059Z,91.98
2022-10-02T03:39:34.862Z,93.36
2022-10-02T03:40:36.707Z,93.76
2022-10-02T03:41:38.732Z,92.81
2022-10-02T03:42:40.402Z,93.07
2022-10-02T03:43:42.010Z,94.00
2022-10-02T03:44:44.018Z,96.20
2022-10-02T03:45:51.298Z,94.11
2022-10-02T03:46:53.464Z,93.91
2022-10-02T03:47:55.263Z,92.67
2022-10-02T03:48:56.954Z,94.16
2022-10-02T03:49:58.684Z,93.20
2022-10-02T03:51:00.499Z,95.37
2022-10-02T03:52:02.182Z,98.45
2022-10-02T03:53:13.102Z,95.55
2022-10-02T03:54:21.316Z,97.48
2022-10-02T03:55:37.953Z,98.29
2022-10-02T03:56:59.903Z,99.09
2022-10-02T03:58:16.006Z,99.85
2022-10-02T03:59:46.017Z,100.00
2022-10-02T04:00:50.358Z,100.00
2022-10-02T04:01:55.700Z,100.00
2022-10-02T04:03:10.793Z,100.00
2022-10-02T04:04:18.380Z,100.00
2022-10-02T04:05:26.474Z,100.00
2022-10-02T04:07:13.135Z,100.00
2022-10-02T04:08:19.285Z,100.00
2022-10-02T04:09:29.368Z,100.00
2022-10-02T04:10:38.832Z,100.00
2022-10-02T04:12:09.030Z,100.00
2022-10-02T04:13:27.586Z,100.00
2022-10-02T04:14:49.305Z,100.00
2022-10-02T04:15:57.912Z,100.00
2022-10-02T04:17:14.298Z,100.00
2022-10-02T04:18:22.779Z,100.00
2022-10-02T04:19:29.009Z,100.00
2022-10-02T04:20:41.762Z,100.00
2022-10-02T04:21:54.530Z,100.00
2022-10-02T04:23:05.795Z,100.00
2022-10-02T04:24:13.347Z,100.00
2022-10-02T04:25:20.676Z,100.00
2022-10-02T04:26:30.510Z,100.00
2022-10-02T04:27:40.452Z,100.00
2022-10-02T04:28:55.434Z,100.00
2022-10-02T04:30:01.580Z,100.00
2022-10-02T04:31:09.082Z,100.00
2022-10-02T04:32:26.599Z,100.00
2022-10-02T04:33:28.769Z,100.00
2022-10-02T04:34:30.287Z,100.00
2022-10-02T04:35:44.964Z,100.00
2022-10-02T04:37:20.838Z,100.00
2022-10-02T04:38:28.621Z,100.00
2022-10-02T04:40:09.426Z,100.00
2022-10-02T04:41:47.636Z,100.00
2022-10-02T04:42:49.155Z,100.00
2022-10-02T04:44:21.657Z,100.00
2022-10-02T04:46:24.681Z,100.00
2022-10-02T04:47:44.393Z,100.00
2022-10-02T04:48:54.860Z,100.00
2022-10-02T04:50:17.451Z,100.00
2022-10-02T04:51:53.169Z,100.00
2022-10-02T04:53:12.490Z,100.00
2022-10-02T04:55:02.205Z,100.00
2022-10-02T04:56:38.668Z,100.00
2022-10-02T04:58:01.893Z,100.00
2022-10-02T04:59:31.053Z,100.00
2022-10-02T05:00:42.729Z,100.00
2022-10-02T05:01:50.121Z,100.00
2022-10-02T05:03:05.239Z,100.00
2022-10-02T05:04:39.561Z,100.00
2022-10-02T05:06:07.512Z,100.00
2022-10-02T05:07:44.478Z,100.00
2022-10-02T05:08:59.629Z,100.00
2022-10-02T05:10:21.632Z,100.00
2022-10-02T05:12:13.386Z,100.00
2022-10-02T05:13:33.551Z,100.00
2022-10-02T05:14:56.179Z,100.00
2022-10-02T05:16:31.685Z,100.00
2022-10-02T05:18:15.778Z,100.00
2022-10-02T05:19:34.615Z,100.00
2022-10-02T05:20:45.729Z,100.00
2022-10-02T05:22:13.913Z,100.00
2022-10-02T05:23:21.510Z,100.00
2022-10-02T05:24:39.305Z,100.00
2022-10-02T05:26:02.486Z,100.00
2022-10-02T05:27:19.874Z,100.00
2022-10-02T05:28:49.652Z,100.00
2022-10-02T05:30:05.825Z,100.00
2022-10-02T05:31:13.703Z,100.00
2022-10-02T05:32:18.259Z,100.00
2022-10-02T05:33:48.462Z,100.00
2022-10-02T05:35:14.978Z,100.00
2022-10-02T05:36:28.499Z,100.00
2022-10-02T05:37:30.055Z,100.00
2022-10-02T05:38:40.788Z,100.00
2022-10-02T05:39:58.319Z,100.00
2022-10-02T05:41:23.529Z,100.00
2022-10-02T05:42:43.154Z,100.00
2022-10-02T05:44:20.236Z,100.00
2022-10-02T05:45:27.563Z,100.00
2022-10-02T05:46:35.667Z,100.00
2022-10-02T05:47:42.719Z,100.00
2022-10-02T05:48:47.510Z,100.00
2022-10-02T05:49:56.378Z,100.00
2022-10-02T05:51:12.632Z,100.00
2022-10-02T05:52:22.401Z,100.00
2022-10-02T05:53:44.234Z,100.00
2022-10-02T05:54:55.628Z,100.00
2022-10-02T05:56:09.527Z,100.00
2022-10-02T05:57:26.036Z,100.00
2022-10-02T05:58:37.614Z,100.00
2022-10-02T05:59:50.766Z,100.00
2022-10-02T06:01:04.800Z,100.00
2022-10-02T06:02:35.592Z,100.00
2022-10-02T06:03:51.394Z,100.00
2022-10-02T06:05:02.700Z,100.00
2022-10-02T06:06:16.308Z,100.00
2022-10-02T06:07:19.219Z,100.00
2022-10-02T06:08:36.483Z,100.00
2022-10-02T06:09:48.523Z,100.00
2022-10-02T06:10:54.188Z,100.00
2022-10-02T06:12:05.130Z,100.00
2022-10-02T06:13:16.622Z,100.00
2022-10-02T06:14:34.524Z,100.00
2022-10-02T06:15:43.003Z,100.00
2022-10-02T06:16:49.794Z,100.00
2022-10-02T06:18:09.040Z,100.00
2022-10-02T06:19:26.086Z,100.00
2022-10-02T06:20:50.820Z,100.00
2022-10-02T06:22:01.530Z,100.00
2022-10-02T06:23:22.620Z,100.00
2022-10-02T06:24:39.812Z,100.00
2022-10-02T06:25:49.808Z,100.00
2022-10-02T06:27:01.030Z,100.00
2022-10-02T06:28:14.742Z,100.00
2022-10-02T06:29:27.970Z,100.00
2022-10-02T06:30:31.869Z,100.00
2022-10-02T06:31:48.586Z,100.00
2022-10-02T06:32:58.774Z,100.00
2022-10-02T06:34:00.402Z,100.00
2022-10-02T06:35:10.364Z,100.00
2022-10-02T06:36:14.653Z,100.00
2022-10-02T06:37:22.308Z,100.00
2022-10-02T06:39:09.356Z,100.00
2022-10-02T06:40:19.771Z,100.00
2022-10-02T06:41:29.029Z,100.00
2022-10-02T06:42:36.571Z,100.00
2022-10-02T06:44:04.485Z,100.00
2022-10-02T06:45:32.391Z,100.00
2022-10-02T06:47:06.984Z,100.00
2022-10-02T06:48:22.365Z,100.00
2022-10-02T06:49:48.182Z,100.00
2022-10-02T06:51:07.760Z,100.00
2022-10-02T06:52:33.375Z,100.00
2022-10-02T06:54:01.370Z,100.00
2022-10-02T06:55:31.253Z,100.00
2022-10-02T06:57:15.354Z,100.00
2022-10-02T06:58:28.947Z,100.00
2022-10-02T07:00:01.724Z,100.00
2022-10-02T07:01:10.290Z,100.00
2022-10-02T07:02:40.070Z,100.00
2022-10-02T07:03:55.265Z,100.00
2022-10-02T07:05:30.699Z,100.00
2022-10-02T07:06:58.636Z,100.00
2022-10-02T07:08:16.663Z,100.00
2022-10-02T07:09:32.514Z,100.00
2022-10-02T07:10:49.351Z,100.00
2022-10-02T07:12:26.849Z,100.00
2022-10-02T07:13:37.472Z,100.00
2022-10-02T07:15:17.122Z,100.00
2022-10-02T07:16:30.863Z,100.00
2022-10-02T07:17:54.351Z,100.00
2022-10-02T07:19:33.524Z,100.00
2022-10-02T07:20:56.987Z,100.00
2022-10-02T07:22:43.525Z,100.00
2022-10-02T07:23:53.169Z,100.00
2022-10-02T07:24:58.556Z,100.00
2022-10-02T07:26:07.497Z,100.00
2022-10-02T07:27:34.221Z,100.00
2022-10-02T07:29:04.989Z,100.00
2022-10-02T07:30:11.844Z,100.00
2022-10-02T07:31:38.955Z,100.00
2022-10-02T07:32:48.617Z,100.00
2022-10-02T07:34:06.529Z,100.00
2022-10-02T07:35:23.790Z,100.00
2022-10-02T07:36:40.776Z,100.00
2022-10-02T07:38:23.303Z,100.00
2022-10-02T07:39:55.538Z,100.00
2022-10-02T07:41:25.108Z,100.00
2022-10-02T07:42:38.963Z,100.00
2022-10-02T07:44:17.183Z,100.00
2022-10-02T07:45:27.805Z,100.00
2022-10-02T07:46:38.968Z,100.00
2022-10-02T07:47:49.644Z,100.00
2022-10-02T07:49:23.378Z,100.00
2022-10-02T07:50:36.902Z,100.00
2022-10-02T07:52:03.226Z,100.00
2022-10-02T07:53:19.852Z,100.00
2022-10-02T07:54:44.061Z,100.00
2022-10-02T07:55:55.343Z,100.00
2022-10-02T07:57:05.173Z,100.00
2022-10-02T07:58:13.685Z,100.00
2022-10-02T07:59:17.412Z,100.00
2022-10-02T08:00:23.317Z,100.00
2022-10-02T08:01:31.513Z,100.00
2022-10-02T08:03:10.193Z,100.00
2022-10-02T08:04:21.438Z,100.00
2022-10-02T08:05:28.349Z,100.00
2022-10-02T08:06:32.350Z,100.00
2022-10-02T08:07:34.408Z,100.00
2022-10-02T08:08:47.705Z,100.00
2022-10-02T08:09:52.269Z,100.00
2022-10-02T08:11:02.637Z,100.00
2022-10-02T08:12:15.455Z,100.00
2022-10-02T08:13:28.441Z,100.00
2022-10-02T08:14:39.861Z,100.00
2022-10-02T08:15:45.632Z,100.00
2022-10-02T08:16:53.297Z,100.00
2022-10-02T08:18:11.016Z,100.00
2022-10-02T08:19:33.586Z,100.00
2022-10-02T08:20:43.767Z,100.00
2022-10-02T08:21:55.772Z,100.00
2022-10-02T08:23:07.212Z,100.00
2022-10-02T08:24:16.062Z,100.00
2022-10-02T08:25:25.487Z,100.00
2022-10-02T08:26:36.119Z,100.00
2022-10-02T08:27:49.990Z,100.00
2022-10-02T08:28:54.639Z,100.00
2022-10-02T08:30:03.594Z,100.00
2022-10-02T08:31:12.068Z,100.00
2022-10-02T08:32:14.549Z,100.00
2022-10-02T08:33:21.293Z,100.00
2022-10-02T08:34:25.058Z,100.00
2022-10-02T08:35:40.343Z,100.00
2022-10-02T08:37:06.244Z,100.00
2022-10-02T08:38:41.434Z,100.00
2022-10-02T08:40:04.473Z,100.00
2022-10-02T08:41:09.224Z,100.00
2022-10-02T08:42:38.767Z,100.00
2022-10-02T08:44:02.502Z,100.00
2022-10-02T08:45:34.353Z,100.00
2022-10-02T08:46:49.527Z,100.00
2022-10-02T08:48:28.452Z,100.00
2022-10-02T08:50:06.265Z,100.00
2022-10-02T08:51:41.686Z,100.00
2022-10-02T08:53:17.576Z,100.00
2022-10-02T08:54:47.378Z,100.00
2022-10-02T08:55:59.062Z,100.00
2022-10-02T08:57:12.319Z,100.00
2022-10-02T08:58:29.382Z,100.00
2022-10-02T08:59:49.103Z,100.00
2022-10-02T09:01:20.824Z,100.00
2022-10-02T09:02:53.427Z,100.00
2022-10-02T09:04:16.195Z,100.00
2022-10-02T09:05:56.073Z,100.00
2022-10-02T09:07:36.953Z,100.00
2022-10-02T09:09:15.956Z,100.00
2022-10-02T09:10:45.954Z,100.00
2022-10-02T09:12:11.495Z,100.00
2022-10-02T09:14:10.728Z,100.00
2022-10-02T09:15:26.300Z,100.00
2022-10-02T09:17:03.275Z,100.00
2022-10-02T09:18:23.327Z,100.00
2022-10-02T09:19:40.459Z,100.00
2022-10-02T09:20:48.485Z,100.00
2022-10-02T09:22:11.749Z,100.00
2022-10-02T09:23:19.460Z,100.00
2022-10-02T09:24:55.366Z,100.00
2022-10-02T09:26:10.309Z,100.00
2022-10-02T09:27:34.982Z,100.00
2022-10-02T09:29:20.194Z,100.00
2022-10-02T09:31:03.727Z,100.00
2022-10-02T09:32:15.872Z,100.00
2022-10-02T09:33:40.047Z,100.00
2022-10-02T09:35:19.230Z,100.00
2022-10-02T09:36:45.961Z,100.00
2022-10-02T09:38:29.708Z,100.00
2022-10-02T09:39:47.454Z,100.00
2022-10-02T09:41:03.262Z,100.00
2022-10-02T09:42:23.487Z,100.00
2022-10-02T09:44:00.109Z,100.00
2022-10-02T09:45:33.240Z,100.00
2022-10-02T09:46:48.175Z,100.00
2022-10-02T09:48:27.506Z,100.00
2022-10-02T09:49:53.880Z,100.00
2022-10-02T09:51:20.751Z,100.00
2022-10-02T09:52:32.860Z,100.00
2022-10-02T09:53:40.573Z,100.00
2022-10-02T09:55:00.555Z,100.00
2022-10-02T09:56:14.253Z,100.00
2022-10-02T09:57:21.831Z,100.00
2022-10-02T09:58:44.649Z,100.00
2022-10-02T10:00:14.421Z,100.00
2022-10-02T10:01:28.451Z,100.00
2022-10-02T10:02:35.965Z,100.00
2022-10-02T10:03:57.866Z,100.00
2022-10-02T10:05:20.870Z,100.00
2022-10-02T10:06:41.771Z,100.00
2022-10-02T10:07:52.463Z,100.00
2022-10-02T10:09:14.782Z,100.00
2022-10-02T10:10:56.974Z,100.00
2022-10-02T10:12:28.571Z,100.00
2022-10-02T10:13:51.892Z,100.00
2022-10-02T10:15:09.011Z,100.00
2022-10-02T10:16:29.978Z,100.00
2022-10-02T10:17:43.789Z,100.00
2022-10-02T10:18:56.406Z,100.00
2022-10-02T10:20:22.926Z,100.00
2022-10-02T10:22:02.324Z,100.00
2022-10-02T10:23:37.801Z,100.00
2022-10-02T10:24:42.209Z,100.00
2022-10-02T10:25:52.876Z,100.00
2022-10-02T10:27:08.158Z,100.00
2022-10-02T10:28:15.864Z,100.00
2022-10-02T10:29:39.954Z,100.00
2022-10-02T10:30:44.562Z,100.00
2022-10-02T10:32:10.626Z,100.00
2022-10-02T10:33:27.951Z,100.00
2022-10-02T10:34:35.552Z,100.00
2022-10-02T10:35:37.311Z,100.00
2022-10-02T10:37:03.812Z,100.00
2022-10-02T10:38:33.361Z,100.00
2022-10-02T10:39:43.886Z,100.00
2022-10-02T10:40:54.705Z,100.00
2022-10-02T10:42:24.239Z,100.00
2022-10-02T10:43:36.505Z,100.00
2022-10-02T10:45:03.074Z,100.00
2022-10-02T10:46:17.618Z,100.00
2022-10-02T10:47:35.845Z,100.00
2022-10-02T10:48:40.432Z,100.00
2022-10-02T10:50:17.626Z,100.00
2022-10-02T10:51:45.719Z,100.00
2022-10-02T10:53:11.767Z,100.00
2022-10-02T10:54:31.624Z,100.00
2022-10-02T10:55:38.347Z,100.00
2022-10-02T10:56:59.542Z,100.00
2022-10-02T10:58:23.020Z,100.00
2022-10-02T10:59:51.077Z,100.00
2022-10-02T11:01:19.719Z,100.00
2022-10-02T11:02:44.508Z,100.00
2022-10-02T11:04:17.559Z,100.00
2022-10-02T11:05:37.554Z,100.00
2022-10-02T11:06:58.389Z,100.00
2022-10-02T11:08:06.251Z,100.00
2022-10-02T11:09:35.305Z,100.00
2022-10-02T11:11:14.805Z,100.00
2022-10-02T11:12:47.167Z,100.00
2022-10-02T11:14:02.561Z,100.00
2022-10-02T11:15:22.628Z,100.00
2022-10-02T11:16:39.585Z,100.00
2022-10-02T11:18:15.455Z,100.00
2022-10-02T11:19:23.257Z,100.00
2022-10-02T11:20:44.208Z,100.00
2022-10-02T11:21:56.634Z,100.00
2022-10-02T11:23:33.718Z,100.00
2022-10-02T11:25:16.272Z,100.00
2022-10-02T11:27:32.073Z,100.00
2022-10-02T11:28:56.619Z,100.00
2022-10-02T11:30:05.514Z,100.00
2022-10-02T11:31:29.970Z,100.00
2022-10-02T11:33:02.377Z,100.00
2022-10-02T11:34:20.099Z,100.00
2022-10-02T11:35:29.425Z,100.00
2022-10-02T11:36:52.572Z,100.00
2022-10-02T11:38:15.550Z,100.00
2022-10-02T11:39:36.426Z,100.00
2022-10-02T11:40:41.536Z,100.00
2022-10-02T11:41:53.672Z,100.00
2022-10-02T11:43:32.835Z,100.00
2022-10-02T11:44:47.694Z,100.00
2022-10-02T11:46:04.741Z,100.00
2022-10-02T11:47:18.519Z,100.00
2022-10-02T11:48:44.779Z,100.00
2022-10-02T11:50:15.753Z,100.00
2022-10-02T11:51:46.313Z,100.00
2022-10-02T11:53:32.654Z,100.00
2022-10-02T11:54:44.970Z,100.00
2022-10-02T11:55:57.171Z,100.00
2022-10-02T11:57:23.509Z,100.00
2022-10-02T11:58:45.481Z,100.00
2022-10-02T12:00:25.910Z,100.00
2022-10-02T12:01:43.196Z,100.00
2022-10-02T12:02:56.414Z,100.00
2022-10-02T12:04:26.507Z,100.00
2022-10-02T12:05:54.783Z,100.00
2022-10-02T12:07:10.723Z,100.00
2022-10-02T12:08:30.259Z,100.00
2022-10-02T12:09:40.779Z,100.00
2022-10-02T12:11:06.279Z,100.00
2022-10-02T12:12:42.290Z,100.00
2022-10-02T12:14:05.132Z,100.00
2022-10-02T12:15:24.017Z,100.00
2022-10-02T12:16:34.987Z,100.00
2022-10-02T12:18:02.212Z,100.00
2022-10-02T12:19:31.464Z,100.00
2022-10-02T12:21:26.224Z,100.00
2022-10-02T12:23:02.866Z,100.00
2022-10-02T12:24:37.714Z,100.00
2022-10-02T12:26:34.743Z,100.00
2022-10-02T12:27:45.605Z,100.00
2022-10-02T12:29:00.516Z,100.00
2022-10-02T12:30:14.898Z,100.00
2022-10-02T12:31:25.344Z,100.00
2022-10-02T12:32:53.796Z,100.00
2022-10-02T12:34:01.344Z,100.00
2022-10-02T12:35:09.562Z,100.00
2022-10-02T12:36:34.015Z,100.00
2022-10-02T12:38:00.526Z,100.00
2022-10-02T12:39:22.184Z,100.00
2022-10-02T12:40:23.875Z,100.00
2022-10-02T12:42:04.045Z,100.00
2022-10-02T12:43:16.616Z,100.00
2022-10-02T12:44:33.568Z,100.00
2022-10-02T12:45:58.943Z,100.00
2022-10-02T12:47:40.238Z,100.00
2022-10-02T12:49:03.138Z,100.00
2022-10-02T12:50:46.579Z,100.00
2022-10-02T12:52:16.381Z,100.00
2022-10-02T12:53:45.451Z,100.00
2022-10-02T12:55:09.538Z,100.00
2022-10-02T12:56:45.834Z,100.00
2022-10-02T12:58:06.035Z,100.00
2022-10-02T12:59:26.920Z,100.00
2022-10-02T13:00:52.240Z,100.00
2022-10-02T13:02:56.114Z,100.00
2022-10-02T13:04:10.937Z,100.00
2022-10-02T13:05:46.797Z,100.00
2022-10-02T13:06:58.628Z,100.00
2022-10-02T13:08:18.563Z,100.00
2022-10-02T13:09:20.816Z,100.00
2022-10-02T13:10:30.846Z,100.00
2022-10-02T13:12:11.610Z,100.00
2022-10-02T13:13:36.180Z,100.00
2022-10-02T13:14:45.804Z,100.00
2022-10-02T13:16:08.582Z,100.00
2022-10-02T13:17:32.096Z,100.00
2022-10-02T13:18:58.775Z,100.00
2022-10-02T13:20:17.411Z,100.00
2022-10-02T13:21:39.145Z,100.00
2022-10-02T13:22:59.892Z,100.00
2022-10-02T13:24:24.903Z,100.00
2022-10-02T13:25:44.719Z,100.00
2022-10-02T13:26:54.097Z,100.00
2022-10-02T13:28:04.998Z,100.00
2022-10-02T13:29:13.721Z,100.00
2022-10-02T13:30:18.016Z,100.00
2022-10-02T13:31:26.867Z,100.00
2022-10-02T13:32:45.256Z,100.00
2022-10-02T13:34:19.932Z,100.00
2022-10-02T13:35:48.653Z,100.00
2022-10-02T13:37:19.080Z,100.00
2022-10-02T13:38:29.797Z,100.00
2022-10-02T13:39:46.502Z,100.00
2022-10-02T13:41:17.576Z,100.00
2022-10-02T13:42:37.491Z,100.00
2022-10-02T13:44:04.456Z,100.00
2022-10-02T13:45:06.168Z,100.00
2022-10-02T13:46:19.811Z,100.00
2022-10-02T13:47:33.406Z,100.00
2022-10-02T13:48:55.073Z,100.00
2022-10-02T13:50:17.917Z,100.00
2022-10-02T13:51:29.354Z,100.00
2022-10-02T13:52:33.682Z,100.00
2022-10-02T13:53:41.817Z,100.00
2022-10-02T13:54:43.479Z,100.00
2022-10-02T13:55:51.814Z,100.00
2022-10-02T13:57:37.501Z,100.00
2022-10-02T13:58:39.480Z,100.00
2022-10-02T14:00:02.156Z,100.00
2022-10-02T14:01:25.996Z,100.00
2022-10-02T14:03:16.700Z,100.00
2022-10-02T14:04:34.524Z,100.00
2022-10-02T14:06:00.580Z,100.00
2022-10-02T14:07:39.713Z,100.00
2022-10-02T14:08:55.185Z,100.00
2022-10-02T14:10:02.531Z,100.00
2022-10-02T14:11:30.069Z,100.00
2022-10-02T14:12:57.846Z,100.00
2022-10-02T14:14:24.114Z,100.00
2022-10-02T14:16:02.474Z,100.00
2022-10-02T14:17:13.414Z,100.00
2022-10-02T14:18:53.112Z,100.00
2022-10-02T14:19:54.863Z,100.00
2022-10-02T14:21:40.914Z,100.00
2022-10-02T14:23:00.974Z,100.00
2022-10-02T14:24:05.619Z,100.00
2022-10-02T14:25:22.950Z,100.00
2022-10-02T14:26:44.925Z,100.00
2022-10-02T14:27:46.528Z,100.00
2022-10-02T14:28:59.037Z,100.00
2022-10-02T14:30:18.972Z,100.00
2022-10-02T14:31:29.836Z,100.00
2022-10-02T14:32:53.901Z,100.00
2022-10-02T14:34:15.949Z,100.00
2022-10-02T14:35:34.560Z,100.00
2022-10-02T14:37:10.378Z,100.00
2022-10-02T14:38:44.716Z,100.00
2022-10-02T14:39:47.915Z,100.00
2022-10-02T14:40:58.056Z,100.00
2022-10-02T14:42:25.262Z,100.00
2022-10-02T14:43:33.487Z,100.00
2022-10-02T14:45:00.537Z,100.00
2022-10-02T14:46:50.392Z,100.00
2022-10-02T14:48:01.366Z,100.00
2022-10-02T14:49:27.562Z,100.00
2022-10-02T14:50:55.193Z,100.00
2022-10-02T14:52:06.331Z,100.00
2022-10-02T14:53:26.766Z,100.00
2022-10-02T14:54:50.119Z,100.00
2022-10-02T14:56:19.945Z,100.00
2022-10-02T14:57:55.369Z,100.00
2022-10-02T14:59:28.495Z,100.00
2022-10-02T15:01:14.878Z,100.00
2022-10-02T15:02:47.525Z,100.00
2022-10-02T15:04:14.994Z,100.00
2022-10-02T15:05:34.846Z,100.00
2022-10-02T15:06:36.494Z,100.00
2022-10-02T15:07:40.488Z,100.00
2022-10-02T15:08:50.128Z,100.00
2022-10-02T15:10:26.454Z,100.00
2022-10-02T15:11:51.810Z,100.00
2022-10-02T15:13:10.171Z,100.00
2022-10-02T15:14:26.777Z,100.00
2022-10-02T15:15:40.527Z,100.00
2022-10-02T15:17:03.956Z,100.00
2022-10-02T15:18:38.430Z,100.00
2022-10-02T15:19:49.951Z,100.00
2022-10-02T15:21:00.949Z,100.00
2022-10-02T15:22:14.768Z,100.00
2022-10-02T15:23:50.885Z,100.00
2022-10-02T15:25:17.935Z,100.00
2022-10-02T15:26:48.641Z,100.00
2022-10-02T15:28:18.150Z,100.00
2022-10-02T15:29:58.519Z,100.00
2022-10-02T15:31:14.205Z,100.00
2022-10-02T15:32:53.447Z,100.00
2022-10-02T15:34:11.028Z,100.00
2022-10-02T15:35:19.455Z,100.00
2022-10-02T15:36:35.227Z,100.00
2022-10-02T15:38:11.122Z,100.00
2022-10-02T15:39:37.013Z,100.00
2022-10-02T15:41:01.902Z,100.00
2022-10-02T15:42:09.236Z,100.00
2022-10-02T15:43:16.823Z,100.00
2022-10-02T15:44:32.104Z,100.00
2022-10-02T15:45:40.778Z,100.00
2022-10-02T15:46:56.374Z,100.00
2022-10-02T15:48:19.569Z,100.00
2022-10-02T15:49:44.439Z,100.00
2022-10-02T15:50:58.691Z,100.00
2022-10-02T15:52:24.113Z,100.00
2022-10-02T15:53:44.034Z,100.00
2022-10-02T15:55:00.464Z,100.00
2022-10-02T15:56:02.177Z,100.00
2022-10-02T15:57:32.488Z,100.00
2022-10-02T15:58:52.893Z,100.00
2022-10-02T15:59:54.720Z,100.00
2022-10-02T16:01:04.356Z,100.00
2022-10-02T16:02:27.227Z,100.00
2022-10-02T16:03:54.047Z,100.00
2022-10-02T16:05:15.386Z,100.00
2022-10-02T16:06:35.910Z,100.00
2022-10-02T16:07:57.744Z,100.00
2022-10-02T16:09:06.557Z,100.00
2022-10-02T16:10:26.000Z,100.00
2022-10-02T16:11:50.619Z,100.00
2022-10-02T16:13:08.727Z,100.00
2022-10-02T16:14:19.831Z,100.00
2022-10-02T16:15:32.373Z,100.00
2022-10-02T16:16:37.195Z,100.00
2022-10-02T16:18:02.344Z,100.00
2022-10-02T16:19:16.364Z,100.00
2022-10-02T16:20:25.402Z,100.00
2022-10-02T16:21:46.058Z,100.00